Terminal Aerodrome Forecast
Issued by NWS Paducah, KY

Home | Current Version | Previous Version | Text Only | Print | Product List | Glossary On
Versions: 1 2 3 4 5 6 7 8 9 10 11 12 13 14 15 16 17 18 19 20 21 22 23 24 25 26 27 28 29
000
FTUS43 KPAH 181200 AAA
TAFPAH
TAF AMD
KPAH 181253Z 1813/1912 06004KT 6SM BR SCT006 OVC012
      TEMPO 1813/1817 2SM -DZ BR OVC006
     FM181900 05004KT P6SM SCT010 OVC015
     FM182300 04002KT P6SM OVC025=

USA.gov is the U.S. government's official web portal to all federal, state and local government web resources and services.